sensor_id;sensor_type;location;lat;lon;timestamp;temperature;humidity
7902;DHT22;3996;49.674;10.716;2023-02-28T00:01:28;-0.80;34.80
7902;DHT22;3996;49.674;10.716;2023-02-28T00:03:54;-0.90;34.70
7902;DHT22;3996;49.674;10.716;2023-02-28T00:06:19;-0.90;34.90
7902;DHT22;3996;49.674;10.716;2023-02-28T00:08:46;-0.90;35.20
7902;DHT22;3996;49.674;10.716;2023-02-28T00:11:13;-0.90;34.90
7902;DHT22;3996;49.674;10.716;2023-02-28T00:13:43;-1.00;35.20
7902;DHT22;3996;49.674;10.716;2023-02-28T00:16:13;-1.00;35.60
7902;DHT22;3996;49.674;10.716;2023-02-28T00:18:40;-1.00;35.30
7902;DHT22;3996;49.674;10.716;2023-02-28T00:21:06;-1.00;35.40
7902;DHT22;3996;49.674;10.716;2023-02-28T00:23:32;-0.90;34.90
7902;DHT22;3996;49.674;10.716;2023-02-28T00:25:58;-1.00;35.10
7902;DHT22;3996;49.674;10.716;2023-02-28T00:28:24;-1.00;35.10
7902;DHT22;3996;49.674;10.716;2023-02-28T00:30:50;-1.00;34.60
7902;DHT22;3996;49.674;10.716;2023-02-28T00:33:16;-1.00;35.30
7902;DHT22;3996;49.674;10.716;2023-02-28T00:35:42;-1.10;35.20
7902;DHT22;3996;49.674;10.716;2023-02-28T00:38:07;-1.10;35.50
7902;DHT22;3996;49.674;10.716;2023-02-28T00:40:33;-1.00;35.30
7902;DHT22;3996;49.674;10.716;2023-02-28T00:42:59;-1.00;35.10
7902;DHT22;3996;49.674;10.716;2023-02-28T00:45:24;-1.10;35.40
7902;DHT22;3996;49.674;10.716;2023-02-28T00:47:50;-1.10;35.40
7902;DHT22;3996;49.674;10.716;2023-02-28T00:50:20;-1.10;35.60
7902;DHT22;3996;49.674;10.716;2023-02-28T00:52:46;-1.10;35.70
7902;DHT22;3996;49.674;10.716;2023-02-28T00:55:12;-1.20;36.10
7902;DHT22;3996;49.674;10.716;2023-02-28T00:57:38;-1.10;36.20
7902;DHT22;3996;49.674;10.716;2023-02-28T01:00:05;-1.10;36.20
7902;DHT22;3996;49.674;10.716;2023-02-28T01:02:30;-1.10;35.80
7902;DHT22;3996;49.674;10.716;2023-02-28T01:04:56;-1.10;35.50
7902;DHT22;3996;49.674;10.716;2023-02-28T01:07:24;-1.10;35.50
7902;DHT22;3996;49.674;10.716;2023-02-28T01:09:50;-1.10;35.40
7902;DHT22;3996;49.674;10.716;2023-02-28T01:12:16;-1.10;35.70
7902;DHT22;3996;49.674;10.716;2023-02-28T01:14:42;-1.00;35.80
7902;DHT22;3996;49.674;10.716;2023-02-28T01:17:08;-1.00;35.40
7902;DHT22;3996;49.674;10.716;2023-02-28T01:19:33;-1.10;35.70
7902;DHT22;3996;49.674;10.716;2023-02-28T01:22:03;-1.10;35.50
7902;DHT22;3996;49.674;10.716;2023-02-28T01:24:29;-1.10;36.00
7902;DHT22;3996;49.674;10.716;2023-02-28T01:26:55;-1.10;35.40
7902;DHT22;3996;49.674;10.716;2023-02-28T01:29:21;-1.10;35.40
7902;DHT22;3996;49.674;10.716;2023-02-28T01:31:46;-1.20;35.60
7902;DHT22;3996;49.674;10.716;2023-02-28T01:34:12;-1.10;35.90
7902;DHT22;3996;49.674;10.716;2023-02-28T01:36:37;-1.30;36.00
7902;DHT22;3996;49.674;10.716;2023-02-28T01:39:03;-1.30;36.50
7902;DHT22;3996;49.674;10.716;2023-02-28T01:41:32;-1.30;36.30
7902;DHT22;3996;49.674;10.716;2023-02-28T01:46:25;-1.30;36.40
7902;DHT22;3996;49.674;10.716;2023-02-28T01:49:06;-1.30;36.10
7902;DHT22;3996;49.674;10.716;2023-02-28T01:51:45;-1.20;36.10
7902;DHT22;3996;49.674;10.716;2023-02-28T01:54:28;-1.20;36.20
7902;DHT22;3996;49.674;10.716;2023-02-28T01:56:59;-1.30;36.00
7902;DHT22;3996;49.674;10.716;2023-02-28T01:59:53;-1.30;36.00
7902;DHT22;3996;49.674;10.716;2023-02-28T02:02:21;-1.30;36.00
7902;DHT22;3996;49.674;10.716;2023-02-28T02:05:03;-1.30;36.50
7902;DHT22;3996;49.674;10.716;2023-02-28T02:07:37;-1.30;36.00
7902;DHT22;3996;49.674;10.716;2023-02-28T02:15:41;-1.30;36.40
7902;DHT22;3996;49.674;10.716;2023-02-28T02:18:25;-1.30;36.80
7902;DHT22;3996;49.674;10.716;2023-02-28T02:21:16;-1.40;37.50
7902;DHT22;3996;49.674;10.716;2023-02-28T02:24:03;-1.40;37.10
7902;DHT22;3996;49.674;10.716;2023-02-28T02:39:53;-1.40;37.20
7902;DHT22;3996;49.674;10.716;2023-02-28T02:42:26;-1.50;36.70
7902;DHT22;3996;49.674;10.716;2023-02-28T02:45:02;-1.50;37.50
7902;DHT22;3996;49.674;10.716;2023-02-28T02:47:30;-1.50;37.60
7902;DHT22;3996;49.674;10.716;2023-02-28T02:50:00;-1.50;37.60
7902;DHT22;3996;49.674;10.716;2023-02-28T02:52:34;-1.50;38.20
7902;DHT22;3996;49.674;10.716;2023-02-28T02:55:03;-1.50;37.50
7902;DHT22;3996;49.674;10.716;2023-02-28T02:57:35;-1.50;37.60
7902;DHT22;3996;49.674;10.716;2023-02-28T03:00:04;-1.50;37.50
7902;DHT22;3996;49.674;10.716;2023-02-28T03:02:35;-1.50;37.20
7902;DHT22;3996;49.674;10.716;2023-02-28T03:05:06;-1.60;37.30
7902;DHT22;3996;49.674;10.716;2023-02-28T03:07:33;-1.50;37.60
7902;DHT22;3996;49.674;10.716;2023-02-28T03:09:59;-1.60;37.50
7902;DHT22;3996;49.674;10.716;2023-02-28T03:12:38;-1.60;37.60
7902;DHT22;3996;49.674;10.716;2023-02-28T03:15:08;-1.60;37.40
7902;DHT22;3996;49.674;10.716;2023-02-28T03:21:06;-1.50;36.70
7902;DHT22;3996;49.674;10.716;2023-02-28T03:26:33;-1.70;37.40
7902;DHT22;3996;49.674;10.716;2023-02-28T03:29:28;-1.70;37.70
7902;DHT22;3996;49.674;10.716;2023-02-28T03:32:16;-1.60;37.30
7902;DHT22;3996;49.674;10.716;2023-02-28T03:35:01;-1.70;37.50
7902;DHT22;3996;49.674;10.716;2023-02-28T03:37:31;-1.80;38.60
7902;DHT22;3996;49.674;10.716;2023-02-28T03:40:13;-1.90;38.30
7902;DHT22;3996;49.674;10.716;2023-02-28T03:42:42;-1.90;38.50
7902;DHT22;3996;49.674;10.716;2023-02-28T03:45:12;-1.80;38.10
7902;DHT22;3996;49.674;10.716;2023-02-28T03:48:03;-1.80;37.80
7902;DHT22;3996;49.674;10.716;2023-02-28T03:50:37;-1.80;38.00
7902;DHT22;3996;49.674;10.716;2023-02-28T03:53:28;-1.80;37.70
7902;DHT22;3996;49.674;10.716;2023-02-28T03:55:59;-1.80;37.50
7902;DHT22;3996;49.674;10.716;2023-02-28T03:58:57;-1.80;38.10
7902;DHT22;3996;49.674;10.716;2023-02-28T04:01:40;-1.70;37.20
7902;DHT22;3996;49.674;10.716;2023-02-28T04:04:08;-1.80;37.50
7902;DHT22;3996;49.674;10.716;2023-02-28T04:06:35;-1.80;37.60
7902;DHT22;3996;49.674;10.716;2023-02-28T04:09:02;-1.70;38.10
7902;DHT22;3996;49.674;10.716;2023-02-28T04:11:48;-1.80;37.60
7902;DHT22;3996;49.674;10.716;2023-02-28T04:14:16;-1.80;38.20
7902;DHT22;3996;49.674;10.716;2023-02-28T04:16:42;-1.80;37.80
7902;DHT22;3996;49.674;10.716;2023-02-28T04:19:09;-1.80;37.90
7902;DHT22;3996;49.674;10.716;2023-02-28T04:21:37;-1.70;37.60
7902;DHT22;3996;49.674;10.716;2023-02-28T04:24:04;-1.60;37.50
7902;DHT22;3996;49.674;10.716;2023-02-28T04:26:32;-1.70;37.30
7902;DHT22;3996;49.674;10.716;2023-02-28T04:28:59;-1.70;38.20
7902;DHT22;3996;49.674;10.716;2023-02-28T04:31:25;-1.70;38.10
7902;DHT22;3996;49.674;10.716;2023-02-28T04:33:51;-1.80;38.20
7902;DHT22;3996;49.674;10.716;2023-02-28T04:36:16;-1.80;38.50
7902;DHT22;3996;49.674;10.716;2023-02-28T04:38:46;-1.70;38.50
7902;DHT22;3996;49.674;10.716;2023-02-28T04:41:15;-1.70;38.00
7902;DHT22;3996;49.674;10.716;2023-02-28T04:43:40;-1.70;37.40
7902;DHT22;3996;49.674;10.716;2023-02-28T04:46:06;-1.70;37.60
7902;DHT22;3996;49.674;10.716;2023-02-28T04:48:34;-1.70;38.00
7902;DHT22;3996;49.674;10.716;2023-02-28T04:51:11;-1.70;37.90
7902;DHT22;3996;49.674;10.716;2023-02-28T04:53:37;-1.70;38.20
7902;DHT22;3996;49.674;10.716;2023-02-28T04:56:04;-1.70;37.90
7902;DHT22;3996;49.674;10.716;2023-02-28T04:58:29;-1.60;37.80
7902;DHT22;3996;49.674;10.716;2023-02-28T05:03:46;-1.70;38.30
7902;DHT22;3996;49.674;10.716;2023-02-28T05:06:13;-1.70;38.00
7902;DHT22;3996;49.674;10.716;2023-02-28T05:08:39;-1.60;38.00
7902;DHT22;3996;49.674;10.716;2023-02-28T05:11:07;-1.60;37.70
7902;DHT22;3996;49.674;10.716;2023-02-28T05:13:37;-1.70;38.10
7902;DHT22;3996;49.674;10.716;2023-02-28T05:16:02;-1.70;37.60
7902;DHT22;3996;49.674;10.716;2023-02-28T05:18:28;-1.80;38.50
7902;DHT22;3996;49.674;10.716;2023-02-28T05:20:54;-1.80;38.60
7902;DHT22;3996;49.674;10.716;2023-02-28T05:23:20;-1.80;38.20
7902;DHT22;3996;49.674;10.716;2023-02-28T05:25:46;-1.80;38.90
7902;DHT22;3996;49.674;10.716;2023-02-28T05:28:12;-1.70;38.40
7902;DHT22;3996;49.674;10.716;2023-02-28T05:30:37;-1.70;38.70
7902;DHT22;3996;49.674;10.716;2023-02-28T05:33:03;-1.70;38.20
7902;DHT22;3996;49.674;10.716;2023-02-28T05:35:28;-1.70;38.30
7902;DHT22;3996;49.674;10.716;2023-02-28T05:37:54;-1.70;38.30
7902;DHT22;3996;49.674;10.716;2023-02-28T05:40:19;-1.70;38.60
7902;DHT22;3996;49.674;10.716;2023-02-28T05:42:46;-1.70;38.80
7902;DHT22;3996;49.674;10.716;2023-02-28T05:45:12;-1.70;38.30
7902;DHT22;3996;49.674;10.716;2023-02-28T05:47:38;-1.70;38.40
7902;DHT22;3996;49.674;10.716;2023-02-28T05:50:04;-1.70;38.60
7902;DHT22;3996;49.674;10.716;2023-02-28T05:52:30;-1.70;38.50
7902;DHT22;3996;49.674;10.716;2023-02-28T05:54:56;-1.60;38.30
7902;DHT22;3996;49.674;10.716;2023-02-28T05:57:22;-1.70;38.90
7902;DHT22;3996;49.674;10.716;2023-02-28T05:59:48;-1.60;39.60
7902;DHT22;3996;49.674;10.716;2023-02-28T06:02:15;-1.50;39.00
7902;DHT22;3996;49.674;10.716;2023-02-28T06:04:41;-1.50;39.00
7902;DHT22;3996;49.674;10.716;2023-02-28T06:07:07;-1.50;38.90
7902;DHT22;3996;49.674;10.716;2023-02-28T06:09:33;-1.50;39.30
7902;DHT22;3996;49.674;10.716;2023-02-28T06:12:00;-1.40;38.70
7902;DHT22;3996;49.674;10.716;2023-02-28T06:14:27;-1.40;38.90
7902;DHT22;3996;49.674;10.716;2023-02-28T06:16:53;-1.30;38.60
7902;DHT22;3996;49.674;10.716;2023-02-28T06:19:18;-1.10;37.90
7902;DHT22;3996;49.674;10.716;2023-02-28T06:21:44;-1.10;37.60
7902;DHT22;3996;49.674;10.716;2023-02-28T06:24:10;-0.80;37.00
7902;DHT22;3996;49.674;10.716;2023-02-28T06:26:35;-0.20;35.00
7902;DHT22;3996;49.674;10.716;2023-02-28T06:29:01;0.50;33.20
7902;DHT22;3996;49.674;10.716;2023-02-28T06:31:27;1.40;30.40
7902;DHT22;3996;49.674;10.716;2023-02-28T06:33:54;1.90;29.40
7902;DHT22;3996;49.674;10.716;2023-02-28T06:36:20;2.40;27.00
7902;DHT22;3996;49.674;10.716;2023-02-28T06:38:46;1.70;27.00
7902;DHT22;3996;49.674;10.716;2023-02-28T06:41:16;1.50;29.10
7902;DHT22;3996;49.674;10.716;2023-02-28T06:43:42;1.70;28.70
7902;DHT22;3996;49.674;10.716;2023-02-28T06:46:11;1.80;27.60
7902;DHT22;3996;49.674;10.716;2023-02-28T06:48:37;2.20;26.80
7902;DHT22;3996;49.674;10.716;2023-02-28T06:51:09;2.70;26.40
7902;DHT22;3996;49.674;10.716;2023-02-28T06:53:35;3.60;25.00
7902;DHT22;3996;49.674;10.716;2023-02-28T06:56:04;5.40;20.80
7902;DHT22;3996;49.674;10.716;2023-02-28T06:58:31;6.20;17.80
7902;DHT22;3996;49.674;10.716;2023-02-28T07:00:57;6.70;17.50
7902;DHT22;3996;49.674;10.716;2023-02-28T07:03:23;7.30;15.80
7902;DHT22;3996;49.674;10.716;2023-02-28T07:05:48;7.60;15.00
7902;DHT22;3996;49.674;10.716;2023-02-28T07:08:14;7.70;15.10
7902;DHT22;3996;49.674;10.716;2023-02-28T07:10:39;8.30;14.10
7902;DHT22;3996;49.674;10.716;2023-02-28T07:13:06;8.30;13.50
7902;DHT22;3996;49.674;10.716;2023-02-28T07:15:32;8.30;13.50
7902;DHT22;3996;49.674;10.716;2023-02-28T07:17:58;8.10;13.00
7902;DHT22;3996;49.674;10.716;2023-02-28T07:20:24;7.50;14.10
7902;DHT22;3996;49.674;10.716;2023-02-28T07:22:50;8.00;13.90
7902;DHT22;3996;49.674;10.716;2023-02-28T07:25:23;8.30;12.50
7902;DHT22;3996;49.674;10.716;2023-02-28T07:27:48;7.20;13.40
7902;DHT22;3996;49.674;10.716;2023-02-28T07:30:14;5.20;15.40
7902;DHT22;3996;49.674;10.716;2023-02-28T07:32:40;4.70;18.10
7902;DHT22;3996;49.674;10.716;2023-02-28T07:35:06;5.30;17.60
7902;DHT22;3996;49.674;10.716;2023-02-28T07:37:31;6.10;16.60
7902;DHT22;3996;49.674;10.716;2023-02-28T07:40:05;6.60;15.10
7902;DHT22;3996;49.674;10.716;2023-02-28T07:42:37;6.00;14.90
7902;DHT22;3996;49.674;10.716;2023-02-28T07:45:04;4.80;17.80
7902;DHT22;3996;49.674;10.716;2023-02-28T07:47:30;4.20;18.00
7902;DHT22;3996;49.674;10.716;2023-02-28T07:49:56;3.90;20.40
7902;DHT22;3996;49.674;10.716;2023-02-28T07:52:22;3.80;19.80
7902;DHT22;3996;49.674;10.716;2023-02-28T07:54:51;3.80;20.80
7902;DHT22;3996;49.674;10.716;2023-02-28T07:57:17;3.80;20.80
7902;DHT22;3996;49.674;10.716;2023-02-28T07:59:43;4.10;20.40
7902;DHT22;3996;49.674;10.716;2023-02-28T08:02:14;5.20;18.80
7902;DHT22;3996;49.674;10.716;2023-02-28T08:04:40;5.50;17.60
7902;DHT22;3996;49.674;10.716;2023-02-28T08:07:05;5.80;15.80
7902;DHT22;3996;49.674;10.716;2023-02-28T08:09:31;6.20;16.60
7902;DHT22;3996;49.674;10.716;2023-02-28T08:11:56;6.30;15.70
7902;DHT22;3996;49.674;10.716;2023-02-28T08:14:22;6.50;16.20
7902;DHT22;3996;49.674;10.716;2023-02-28T08:16:48;6.60;15.30
7902;DHT22;3996;49.674;10.716;2023-02-28T08:19:13;6.90;15.10
7902;DHT22;3996;49.674;10.716;2023-02-28T08:21:39;6.90;13.40
7902;DHT22;3996;49.674;10.716;2023-02-28T08:24:05;7.00;14.60
7902;DHT22;3996;49.674;10.716;2023-02-28T08:26:31;7.40;13.30
7902;DHT22;3996;49.674;10.716;2023-02-28T08:28:57;7.70;14.00
7902;DHT22;3996;49.674;10.716;2023-02-28T08:31:23;8.20;13.30
7902;DHT22;3996;49.674;10.716;2023-02-28T08:33:48;7.90;13.60
7902;DHT22;3996;49.674;10.716;2023-02-28T08:36:16;7.60;13.00
7902;DHT22;3996;49.674;10.716;2023-02-28T08:38:42;6.30;14.10
7902;DHT22;3996;49.674;10.716;2023-02-28T08:41:10;4.70;13.80
7902;DHT22;3996;49.674;10.716;2023-02-28T08:43:37;4.60;17.70
7902;DHT22;3996;49.674;10.716;2023-02-28T08:46:03;5.20;17.20
7902;DHT22;3996;49.674;10.716;2023-02-28T08:48:30;5.00;15.60
7902;DHT22;3996;49.674;10.716;2023-02-28T08:51:06;5.80;16.80
7902;DHT22;3996;49.674;10.716;2023-02-28T08:53:32;6.00;14.90
7902;DHT22;3996;49.674;10.716;2023-02-28T08:56:03;5.80;14.80
7902;DHT22;3996;49.674;10.716;2023-02-28T08:58:29;6.90;14.50
7902;DHT22;3996;49.674;10.716;2023-02-28T09:00:55;8.40;13.50
7902;DHT22;3996;49.674;10.716;2023-02-28T09:03:22;8.20;10.50
7902;DHT22;3996;49.674;10.716;2023-02-28T09:05:56;9.00;11.50
7902;DHT22;3996;49.674;10.716;2023-02-28T09:08:23;9.20;10.50
7902;DHT22;3996;49.674;10.716;2023-02-28T09:10:49;9.30;10.00
7902;DHT22;3996;49.674;10.716;2023-02-28T09:13:14;8.70;9.60
7902;DHT22;3996;49.674;10.716;2023-02-28T09:15:40;8.50;10.80
7902;DHT22;3996;49.674;10.716;2023-02-28T09:18:06;8.20;11.60
7902;DHT22;3996;49.674;10.716;2023-02-28T09:20:31;7.80;9.90
7902;DHT22;3996;49.674;10.716;2023-02-28T09:22:57;6.80;11.30
7902;DHT22;3996;49.674;10.716;2023-02-28T09:25:22;4.70;12.50
7902;DHT22;3996;49.674;10.716;2023-02-28T09:27:48;4.20;13.10
7902;DHT22;3996;49.674;10.716;2023-02-28T09:30:14;4.30;15.00
7902;DHT22;3996;49.674;10.716;2023-02-28T09:32:40;5.70;14.70
7902;DHT22;3996;49.674;10.716;2023-02-28T09:35:06;8.40;11.10
7902;DHT22;3996;49.674;10.716;2023-02-28T09:37:32;6.20;12.20
7902;DHT22;3996;49.674;10.716;2023-02-28T09:39:58;5.20;13.90
7902;DHT22;3996;49.674;10.716;2023-02-28T09:42:32;4.70;14.20
7902;DHT22;3996;49.674;10.716;2023-02-28T09:45:00;4.30;15.60
7902;DHT22;3996;49.674;10.716;2023-02-28T09:47:31;4.90;16.00
7902;DHT22;3996;49.674;10.716;2023-02-28T09:50:03;4.80;15.40
7902;DHT22;3996;49.674;10.716;2023-02-28T09:52:32;5.40;14.50
7902;DHT22;3996;49.674;10.716;2023-02-28T09:57:41;5.00;15.20
7902;DHT22;3996;49.674;10.716;2023-02-28T10:00:32;5.40;15.40
7902;DHT22;3996;49.674;10.716;2023-02-28T10:05:41;5.40;12.30
7902;DHT22;3996;49.674;10.716;2023-02-28T10:08:15;4.90;13.20
7902;DHT22;3996;49.674;10.716;2023-02-28T10:10:48;4.80;13.10
7902;DHT22;3996;49.674;10.716;2023-02-28T10:13:37;4.70;15.30
7902;DHT22;3996;49.674;10.716;2023-02-28T10:16:11;7.70;13.10
7902;DHT22;3996;49.674;10.716;2023-02-28T10:18:47;8.90;10.10
7902;DHT22;3996;49.674;10.716;2023-02-28T10:21:34;7.10;10.60
7902;DHT22;3996;49.674;10.716;2023-02-28T10:27:00;7.10;11.50
7902;DHT22;3996;49.674;10.716;2023-02-28T10:29:28;7.70;11.50
7902;DHT22;3996;49.674;10.716;2023-02-28T10:32:02;8.00;11.40
7902;DHT22;3996;49.674;10.716;2023-02-28T10:34:28;7.50;10.70
7902;DHT22;3996;49.674;10.716;2023-02-28T10:36:54;7.50;11.10
7902;DHT22;3996;49.674;10.716;2023-02-28T10:39:40;8.20;11.00
7902;DHT22;3996;49.674;10.716;2023-02-28T10:44:47;8.10;9.90
7902;DHT22;3996;49.674;10.716;2023-02-28T10:47:17;8.00;11.50
7902;DHT22;3996;49.674;10.716;2023-02-28T10:49:49;7.90;8.70
7902;DHT22;3996;49.674;10.716;2023-02-28T10:52:33;7.40;10.40
7902;DHT22;3996;49.674;10.716;2023-02-28T10:55:24;7.90;10.20
7902;DHT22;3996;49.674;10.716;2023-02-28T10:57:51;6.90;8.30
7902;DHT22;3996;49.674;10.716;2023-02-28T11:00:24;6.20;11.00
7902;DHT22;3996;49.674;10.716;2023-02-28T11:02:51;6.30;10.40
7902;DHT22;3996;49.674;10.716;2023-02-28T11:05:27;6.40;9.60
7902;DHT22;3996;49.674;10.716;2023-02-28T11:07:54;6.50;11.90
7902;DHT22;3996;49.674;10.716;2023-02-28T11:10:22;6.90;11.40
7902;DHT22;3996;49.674;10.716;2023-02-28T11:12:49;7.40;10.80
7902;DHT22;3996;49.674;10.716;2023-02-28T11:15:25;7.40;10.10
7902;DHT22;3996;49.674;10.716;2023-02-28T11:18:01;7.50;11.80
7902;DHT22;3996;49.674;10.716;2023-02-28T11:20:30;7.30;10.90
7902;DHT22;3996;49.674;10.716;2023-02-28T11:22:58;7.40;11.30
7902;DHT22;3996;49.674;10.716;2023-02-28T11:25:32;7.60;10.70
7902;DHT22;3996;49.674;10.716;2023-02-28T11:28:01;7.70;11.00
7902;DHT22;3996;49.674;10.716;2023-02-28T11:30:37;7.70;10.40
7902;DHT22;3996;49.674;10.716;2023-02-28T11:35:57;7.60;10.50
7902;DHT22;3996;49.674;10.716;2023-02-28T11:38:25;7.40;11.00
7902;DHT22;3996;49.674;10.716;2023-02-28T11:41:10;7.10;10.80
7902;DHT22;3996;49.674;10.716;2023-02-28T11:44:04;7.40;10.60
7902;DHT22;3996;49.674;10.716;2023-02-28T11:46:40;7.50;11.70
7902;DHT22;3996;49.674;10.716;2023-02-28T11:54:54;7.00;10.40
7902;DHT22;3996;49.674;10.716;2023-02-28T12:00:36;7.80;10.20
7902;DHT22;3996;49.674;10.716;2023-02-28T12:03:17;7.60;10.20
7902;DHT22;3996;49.674;10.716;2023-02-28T12:11:51;7.90;8.90
7902;DHT22;3996;49.674;10.716;2023-02-28T12:19:52;7.80;9.20
7902;DHT22;3996;49.674;10.716;2023-02-28T12:22:33;7.70;9.80
7902;DHT22;3996;49.674;10.716;2023-02-28T12:28:02;7.90;10.90
7902;DHT22;3996;49.674;10.716;2023-02-28T12:30:32;7.80;10.70
7902;DHT22;3996;49.674;10.716;2023-02-28T12:33:09;8.10;11.10
7902;DHT22;3996;49.674;10.716;2023-02-28T12:40:54;8.40;9.40
7902;DHT22;3996;49.674;10.716;2023-02-28T12:43:27;8.40;9.00
7902;DHT22;3996;49.674;10.716;2023-02-28T12:45:59;8.40;9.50
7902;DHT22;3996;49.674;10.716;2023-02-28T12:50:55;8.60;9.10
7902;DHT22;3996;49.674;10.716;2023-02-28T12:56:30;8.20;8.90
7902;DHT22;3996;49.674;10.716;2023-02-28T12:59:03;8.40;9.00
7902;DHT22;3996;49.674;10.716;2023-02-28T13:05:10;8.50;9.10
7902;DHT22;3996;49.674;10.716;2023-02-28T13:11:06;8.50;9.10
7902;DHT22;3996;49.674;10.716;2023-02-28T13:13:32;8.40;9.00
7902;DHT22;3996;49.674;10.716;2023-02-28T13:16:05;8.60;8.30
7902;DHT22;3996;49.674;10.716;2023-02-28T13:18:37;8.40;8.50
7902;DHT22;3996;49.674;10.716;2023-02-28T13:21:09;8.50;9.10
7902;DHT22;3996;49.674;10.716;2023-02-28T13:34:31;8.70;9.60
7902;DHT22;3996;49.674;10.716;2023-02-28T13:39:50;8.50;8.70
7902;DHT22;3996;49.674;10.716;2023-02-28T13:42:37;8.50;9.10
7902;DHT22;3996;49.674;10.716;2023-02-28T13:47:44;8.60;8.80
7902;DHT22;3996;49.674;10.716;2023-02-28T13:55:57;8.30;7.90
7902;DHT22;3996;49.674;10.716;2023-02-28T13:58:39;8.40;9.00
7902;DHT22;3996;49.674;10.716;2023-02-28T14:01:24;8.50;9.60
7902;DHT22;3996;49.674;10.716;2023-02-28T14:07:04;8.50;9.10
7902;DHT22;3996;49.674;10.716;2023-02-28T14:15:03;8.10;9.00
7902;DHT22;3996;49.674;10.716;2023-02-28T14:17:30;8.00;8.80
7902;DHT22;3996;49.674;10.716;2023-02-28T14:19:57;8.10;9.50
7902;DHT22;3996;49.674;10.716;2023-02-28T14:31:10;8.10;9.20
7902;DHT22;3996;49.674;10.716;2023-02-28T14:36:35;7.90;9.10
7902;DHT22;3996;49.674;10.716;2023-02-28T14:39:06;7.90;9.40
7902;DHT22;3996;49.674;10.716;2023-02-28T14:41:40;8.00;9.50
7902;DHT22;3996;49.674;10.716;2023-02-28T14:46:46;8.00;10.00
7902;DHT22;3996;49.674;10.716;2023-02-28T14:49:18;8.00;8.70
7902;DHT22;3996;49.674;10.716;2023-02-28T14:51:44;7.90;9.00
7902;DHT22;3996;49.674;10.716;2023-02-28T14:54:15;7.90;9.80
7902;DHT22;3996;49.674;10.716;2023-02-28T14:56:41;7.90;9.30
7902;DHT22;3996;49.674;10.716;2023-02-28T14:59:28;7.80;10.00
7902;DHT22;3996;49.674;10.716;2023-02-28T15:02:20;7.60;10.20
7902;DHT22;3996;49.674;10.716;2023-02-28T15:05:00;7.40;10.50
7902;DHT22;3996;49.674;10.716;2023-02-28T15:07:26;7.10;10.50
7902;DHT22;3996;49.674;10.716;2023-02-28T15:10:15;7.10;11.00
7902;DHT22;3996;49.674;10.716;2023-02-28T15:13:04;7.00;11.00
7902;DHT22;3996;49.674;10.716;2023-02-28T15:15:56;6.90;11.50
7902;DHT22;3996;49.674;10.716;2023-02-28T15:18:43;6.80;11.70
7902;DHT22;3996;49.674;10.716;2023-02-28T15:21:18;6.70;12.10
7902;DHT22;3996;49.674;10.716;2023-02-28T15:23:49;6.40;11.00
7902;DHT22;3996;49.674;10.716;2023-02-28T15:26:19;6.30;12.00
7902;DHT22;3996;49.674;10.716;2023-02-28T15:28:46;6.10;12.00
7902;DHT22;3996;49.674;10.716;2023-02-28T15:31:26;6.10;12.60
7902;DHT22;3996;49.674;10.716;2023-02-28T15:34:15;6.10;13.00
7902;DHT22;3996;49.674;10.716;2023-02-28T15:36:43;6.10;12.70
7902;DHT22;3996;49.674;10.716;2023-02-28T15:39:20;5.90;12.10
7902;DHT22;3996;49.674;10.716;2023-02-28T15:41:46;5.90;13.20
7902;DHT22;3996;49.674;10.716;2023-02-28T15:47:11;5.90;12.80
7902;DHT22;3996;49.674;10.716;2023-02-28T15:49:52;5.80;12.20
7902;DHT22;3996;49.674;10.716;2023-02-28T15:52:26;5.70;13.00
7902;DHT22;3996;49.674;10.716;2023-02-28T15:54:52;5.70;13.50
7902;DHT22;3996;49.674;10.716;2023-02-28T15:57:25;5.70;13.10
7902;DHT22;3996;49.674;10.716;2023-02-28T15:59:58;5.70;13.50
7902;DHT22;3996;49.674;10.716;2023-02-28T16:02:32;5.60;13.40
7902;DHT22;3996;49.674;10.716;2023-02-28T16:07:37;5.40;14.20
7902;DHT22;3996;49.674;10.716;2023-02-28T16:10:04;5.40;14.00
7902;DHT22;3996;49.674;10.716;2023-02-28T16:12:32;5.20;13.70
7902;DHT22;3996;49.674;10.716;2023-02-28T16:15:15;5.10;14.30
7902;DHT22;3996;49.674;10.716;2023-02-28T16:17:42;5.10;14.40
7902;DHT22;3996;49.674;10.716;2023-02-28T16:20:23;5.10;14.80
7902;DHT22;3996;49.674;10.716;2023-02-28T16:22:49;4.80;15.30
7902;DHT22;3996;49.674;10.716;2023-02-28T16:25:18;4.80;15.80
7902;DHT22;3996;49.674;10.716;2023-02-28T16:27:48;4.70;15.90
7902;DHT22;3996;49.674;10.716;2023-02-28T16:30:22;4.70;16.00
7902;DHT22;3996;49.674;10.716;2023-02-28T16:32:49;4.60;16.80
7902;DHT22;3996;49.674;10.716;2023-02-28T16:35:15;4.60;16.70
7902;DHT22;3996;49.674;10.716;2023-02-28T16:37:42;4.40;17.80
7902;DHT22;3996;49.674;10.716;2023-02-28T16:40:19;4.40;17.50
7902;DHT22;3996;49.674;10.716;2023-02-28T16:42:52;4.40;17.40
7902;DHT22;3996;49.674;10.716;2023-02-28T16:45:26;4.40;18.10
7902;DHT22;3996;49.674;10.716;2023-02-28T16:47:52;4.30;18.60
7902;DHT22;3996;49.674;10.716;2023-02-28T16:50:27;4.10;18.80
7902;DHT22;3996;49.674;10.716;2023-02-28T16:52:53;4.10;18.70
7902;DHT22;3996;49.674;10.716;2023-02-28T16:55:20;4.10;18.60
7902;DHT22;3996;49.674;10.716;2023-02-28T16:57:50;4.10;18.90
7902;DHT22;3996;49.674;10.716;2023-02-28T17:00:17;4.10;18.90
7902;DHT22;3996;49.674;10.716;2023-02-28T17:02:43;4.00;18.90
7902;DHT22;3996;49.674;10.716;2023-02-28T17:05:11;4.00;18.80
7902;DHT22;3996;49.674;10.716;2023-02-28T17:07:38;3.90;18.80
7902;DHT22;3996;49.674;10.716;2023-02-28T17:10:17;3.80;18.70
7902;DHT22;3996;49.674;10.716;2023-02-28T17:12:43;3.70;18.80
7902;DHT22;3996;49.674;10.716;2023-02-28T17:15:11;3.80;19.00
7902;DHT22;3996;49.674;10.716;2023-02-28T17:17:37;3.70;19.10
7902;DHT22;3996;49.674;10.716;2023-02-28T17:20:03;3.60;19.10
7902;DHT22;3996;49.674;10.716;2023-02-28T17:22:29;3.50;19.40
7902;DHT22;3996;49.674;10.716;2023-02-28T17:24:55;3.50;19.00
7902;DHT22;3996;49.674;10.716;2023-02-28T17:27:21;3.50;19.50
7902;DHT22;3996;49.674;10.716;2023-02-28T17:29:47;3.50;19.20
7902;DHT22;3996;49.674;10.716;2023-02-28T17:32:12;3.40;19.20
7902;DHT22;3996;49.674;10.716;2023-02-28T17:34:38;3.40;19.50
7902;DHT22;3996;49.674;10.716;2023-02-28T17:37:04;3.20;19.70
7902;DHT22;3996;49.674;10.716;2023-02-28T17:39:29;3.30;20.10
7902;DHT22;3996;49.674;10.716;2023-02-28T17:41:56;3.20;19.90
7902;DHT22;3996;49.674;10.716;2023-02-28T17:44:23;3.20;20.40
7902;DHT22;3996;49.674;10.716;2023-02-28T17:46:49;3.20;20.40
7902;DHT22;3996;49.674;10.716;2023-02-28T17:49:16;3.10;20.30
7902;DHT22;3996;49.674;10.716;2023-02-28T17:51:42;3.00;20.90
7902;DHT22;3996;49.674;10.716;2023-02-28T17:54:08;2.90;21.10
7902;DHT22;3996;49.674;10.716;2023-02-28T17:56:34;2.90;21.10
7902;DHT22;3996;49.674;10.716;2023-02-28T17:59:00;2.90;21.20
7902;DHT22;3996;49.674;10.716;2023-02-28T18:01:26;2.80;21.20
7902;DHT22;3996;49.674;10.716;2023-02-28T18:03:52;2.70;22.00
7902;DHT22;3996;49.674;10.716;2023-02-28T18:06:25;2.70;21.70
7902;DHT22;3996;49.674;10.716;2023-02-28T18:08:53;2.70;21.70
7902;DHT22;3996;49.674;10.716;2023-02-28T18:11:23;2.70;22.10
7902;DHT22;3996;49.674;10.716;2023-02-28T18:13:53;2.50;22.60
7902;DHT22;3996;49.674;10.716;2023-02-28T18:16:21;2.60;22.50
7902;DHT22;3996;49.674;10.716;2023-02-28T18:18:47;2.50;22.10
7902;DHT22;3996;49.674;10.716;2023-02-28T18:21:16;2.60;22.40
7902;DHT22;3996;49.674;10.716;2023-02-28T18:23:43;2.60;22.50
7902;DHT22;3996;49.674;10.716;2023-02-28T18:26:17;2.60;22.60
7902;DHT22;3996;49.674;10.716;2023-02-28T18:28:43;2.60;22.60
7902;DHT22;3996;49.674;10.716;2023-02-28T18:31:11;2.50;23.50